sensor_id;sensor_type;location;lat;lon;timestamp;P1;durP1;ratioP1;P2;durP2;ratioP2
77040;SDS011;65974;42.664;23.264;2023-07-29T00:03:13;13.27;;;4.78;;
77040;SDS011;65974;42.664;23.264;2023-07-29T00:05:39;8.18;;;4.32;;
77040;SDS011;65974;42.664;23.264;2023-07-29T00:08:05;6.90;;;3.05;;
77040;SDS011;65974;42.664;23.264;2023-07-29T00:10:31;5.32;;;3.20;;
77040;SDS011;65974;42.664;23.264;2023-07-29T00:12:57;7.10;;;3.70;;
77040;SDS011;65974;42.664;23.264;2023-07-29T00:15:23;6.45;;;3.42;;
77040;SDS011;65974;42.664;23.264;2023-07-29T00:17:48;8.50;;;3.55;;
77040;SDS011;65974;42.664;23.264;2023-07-29T00:20:14;4.78;;;3.22;;
77040;SDS011;65974;42.664;23.264;2023-07-29T00:22:40;4.47;;;3.17;;
77040;SDS011;65974;42.664;23.264;2023-07-29T00:25:06;7.63;;;4.32;;
77040;SDS011;65974;42.664;23.264;2023-07-29T00:27:31;7.35;;;3.53;;
77040;SDS011;65974;42.664;23.264;2023-07-29T00:29:57;6.38;;;3.88;;
77040;SDS011;65974;42.664;23.264;2023-07-29T00:32:22;4.93;;;4.05;;
77040;SDS011;65974;42.664;23.264;2023-07-29T00:34:47;6.07;;;3.67;;
77040;SDS011;65974;42.664;23.264;2023-07-29T00:37:13;6.07;;;3.40;;
77040;SDS011;65974;42.664;23.264;2023-07-29T00:39:38;6.47;;;3.80;;
77040;SDS011;65974;42.664;23.264;2023-07-29T00:42:04;9.48;;;4.50;;
77040;SDS011;65974;42.664;23.264;2023-07-29T00:44:30;7.07;;;4.20;;
77040;SDS011;65974;42.664;23.264;2023-07-29T00:46:56;5.93;;;4.15;;
77040;SDS011;65974;42.664;23.264;2023-07-29T00:49:22;6.80;;;5.05;;
77040;SDS011;65974;42.664;23.264;2023-07-29T00:51:48;6.35;;;3.97;;
77040;SDS011;65974;42.664;23.264;2023-07-29T00:54:14;6.40;;;4.13;;
77040;SDS011;65974;42.664;23.264;2023-07-29T00:56:40;7.03;;;4.07;;
77040;SDS011;65974;42.664;23.264;2023-07-29T00:59:05;5.75;;;3.55;;
77040;SDS011;65974;42.664;23.264;2023-07-29T01:01:31;5.82;;;4.15;;
77040;SDS011;65974;42.664;23.264;2023-07-29T01:03:57;5.45;;;3.85;;
77040;SDS011;65974;42.664;23.264;2023-07-29T01:06:34;7.75;;;3.55;;
77040;SDS011;65974;42.664;23.264;2023-07-29T01:09:30;7.07;;;3.35;;
77040;SDS011;65974;42.664;23.264;2023-07-29T01:12:21;6.63;;;3.72;;
77040;SDS011;65974;42.664;23.264;2023-07-29T01:17:23;6.05;;;4.22;;
77040;SDS011;65974;42.664;23.264;2023-07-29T01:22:34;5.90;;;4.28;;
77040;SDS011;65974;42.664;23.264;2023-07-29T01:25:00;6.45;;;4.03;;
77040;SDS011;65974;42.664;23.264;2023-07-29T01:27:26;4.18;;;3.70;;
77040;SDS011;65974;42.664;23.264;2023-07-29T01:29:52;7.50;;;3.83;;
77040;SDS011;65974;42.664;23.264;2023-07-29T01:37:48;9.35;;;5.28;;
77040;SDS011;65974;42.664;23.264;2023-07-29T01:40:16;7.70;;;4.65;;
77040;SDS011;65974;42.664;23.264;2023-07-29T01:42:43;5.82;;;4.20;;
77040;SDS011;65974;42.664;23.264;2023-07-29T01:45:10;5.57;;;2.92;;
77040;SDS011;65974;42.664;23.264;2023-07-29T01:47:36;9.00;;;3.80;;
77040;SDS011;65974;42.664;23.264;2023-07-29T01:50:03;7.32;;;4.68;;
77040;SDS011;65974;42.664;23.264;2023-07-29T01:52:29;7.20;;;4.38;;
77040;SDS011;65974;42.664;23.264;2023-07-29T01:54:54;6.90;;;4.40;;
77040;SDS011;65974;42.664;23.264;2023-07-29T01:57:20;5.97;;;3.83;;
77040;SDS011;65974;42.664;23.264;2023-07-29T01:59:45;9.18;;;4.40;;
77040;SDS011;65974;42.664;23.264;2023-07-29T02:02:10;5.53;;;4.05;;
77040;SDS011;65974;42.664;23.264;2023-07-29T02:04:36;7.60;;;3.95;;
77040;SDS011;65974;42.664;23.264;2023-07-29T02:07:02;5.50;;;3.85;;
77040;SDS011;65974;42.664;23.264;2023-07-29T02:09:27;7.88;;;3.95;;
77040;SDS011;65974;42.664;23.264;2023-07-29T02:11:54;8.15;;;4.63;;
77040;SDS011;65974;42.664;23.264;2023-07-29T02:14:19;8.45;;;4.10;;
77040;SDS011;65974;42.664;23.264;2023-07-29T02:16:45;11.20;;;4.97;;
77040;SDS011;65974;42.664;23.264;2023-07-29T02:19:10;9.38;;;4.43;;
77040;SDS011;65974;42.664;23.264;2023-07-29T02:21:35;6.72;;;4.05;;
77040;SDS011;65974;42.664;23.264;2023-07-29T02:24:01;5.47;;;3.75;;
77040;SDS011;65974;42.664;23.264;2023-07-29T02:26:26;6.72;;;3.72;;
77040;SDS011;65974;42.664;23.264;2023-07-29T02:28:52;7.35;;;3.75;;
77040;SDS011;65974;42.664;23.264;2023-07-29T02:31:21;6.60;;;3.60;;
77040;SDS011;65974;42.664;23.264;2023-07-29T02:33:48;6.30;;;4.13;;
77040;SDS011;65974;42.664;23.264;2023-07-29T02:36:14;7.25;;;4.13;;
77040;SDS011;65974;42.664;23.264;2023-07-29T02:38:40;5.75;;;4.22;;
77040;SDS011;65974;42.664;23.264;2023-07-29T02:41:06;5.53;;;3.58;;
77040;SDS011;65974;42.664;23.264;2023-07-29T02:45:59;9.55;;;4.60;;
77040;SDS011;65974;42.664;23.264;2023-07-29T02:48:26;8.45;;;4.68;;
77040;SDS011;65974;42.664;23.264;2023-07-29T02:50:53;9.90;;;5.78;;
77040;SDS011;65974;42.664;23.264;2023-07-29T02:53:18;9.50;;;4.85;;
77040;SDS011;65974;42.664;23.264;2023-07-29T02:55:44;9.27;;;6.45;;
77040;SDS011;65974;42.664;23.264;2023-07-29T02:58:09;9.25;;;5.10;;
77040;SDS011;65974;42.664;23.264;2023-07-29T03:00:35;8.45;;;4.22;;
77040;SDS011;65974;42.664;23.264;2023-07-29T03:03:00;9.68;;;5.05;;
77040;SDS011;65974;42.664;23.264;2023-07-29T03:05:29;8.00;;;4.05;;
77040;SDS011;65974;42.664;23.264;2023-07-29T03:07:54;10.73;;;4.47;;
77040;SDS011;65974;42.664;23.264;2023-07-29T03:10:20;6.57;;;4.53;;
77040;SDS011;65974;42.664;23.264;2023-07-29T03:12:47;8.23;;;4.15;;
77040;SDS011;65974;42.664;23.264;2023-07-29T03:15:12;10.07;;;5.22;;
77040;SDS011;65974;42.664;23.264;2023-07-29T03:17:38;7.78;;;4.32;;
77040;SDS011;65974;42.664;23.264;2023-07-29T03:20:03;9.18;;;5.60;;
77040;SDS011;65974;42.664;23.264;2023-07-29T03:22:29;8.38;;;5.13;;
77040;SDS011;65974;42.664;23.264;2023-07-29T03:24:55;11.45;;;4.45;;
77040;SDS011;65974;42.664;23.264;2023-07-29T03:27:20;14.02;;;5.85;;
77040;SDS011;65974;42.664;23.264;2023-07-29T03:29:46;12.45;;;5.25;;
77040;SDS011;65974;42.664;23.264;2023-07-29T03:32:11;9.63;;;5.63;;
77040;SDS011;65974;42.664;23.264;2023-07-29T03:34:36;13.35;;;5.97;;
77040;SDS011;65974;42.664;23.264;2023-07-29T03:37:03;10.90;;;5.10;;
77040;SDS011;65974;42.664;23.264;2023-07-29T03:39:29;13.38;;;5.63;;
77040;SDS011;65974;42.664;23.264;2023-07-29T03:41:54;16.40;;;5.35;;
77040;SDS011;65974;42.664;23.264;2023-07-29T03:44:19;10.48;;;4.95;;
77040;SDS011;65974;42.664;23.264;2023-07-29T03:46:45;7.65;;;5.05;;
77040;SDS011;65974;42.664;23.264;2023-07-29T03:49:10;12.40;;;5.75;;
77040;SDS011;65974;42.664;23.264;2023-07-29T03:51:36;12.15;;;5.00;;
77040;SDS011;65974;42.664;23.264;2023-07-29T03:54:01;11.40;;;5.50;;
77040;SDS011;65974;42.664;23.264;2023-07-29T03:56:28;9.63;;;4.78;;
77040;SDS011;65974;42.664;23.264;2023-07-29T03:58:57;12.43;;;5.50;;
77040;SDS011;65974;42.664;23.264;2023-07-29T04:01:27;8.77;;;5.22;;
77040;SDS011;65974;42.664;23.264;2023-07-29T04:03:53;10.30;;;5.28;;
77040;SDS011;65974;42.664;23.264;2023-07-29T04:06:19;13.68;;;5.90;;
77040;SDS011;65974;42.664;23.264;2023-07-29T04:08:45;9.32;;;6.68;;
77040;SDS011;65974;42.664;23.264;2023-07-29T04:11:10;8.75;;;5.05;;
77040;SDS011;65974;42.664;23.264;2023-07-29T04:13:36;9.25;;;5.20;;
77040;SDS011;65974;42.664;23.264;2023-07-29T04:16:02;18.98;;;9.18;;
77040;SDS011;65974;42.664;23.264;2023-07-29T04:18:29;10.65;;;5.28;;
77040;SDS011;65974;42.664;23.264;2023-07-29T04:20:54;29.55;;;11.70;;
77040;SDS011;65974;42.664;23.264;2023-07-29T04:23:20;11.80;;;6.57;;
77040;SDS011;65974;42.664;23.264;2023-07-29T04:25:45;9.65;;;6.65;;
77040;SDS011;65974;42.664;23.264;2023-07-29T04:28:10;11.63;;;6.85;;
77040;SDS011;65974;42.664;23.264;2023-07-29T04:30:36;14.23;;;6.60;;
77040;SDS011;65974;42.664;23.264;2023-07-29T04:33:01;9.07;;;5.75;;
77040;SDS011;65974;42.664;23.264;2023-07-29T04:35:26;9.48;;;5.85;;
77040;SDS011;65974;42.664;23.264;2023-07-29T04:37:52;8.43;;;5.75;;
77040;SDS011;65974;42.664;23.264;2023-07-29T04:40:17;10.55;;;5.80;;
77040;SDS011;65974;42.664;23.264;2023-07-29T04:42:43;11.70;;;6.00;;
77040;SDS011;65974;42.664;23.264;2023-07-29T04:45:08;16.40;;;6.65;;
77040;SDS011;65974;42.664;23.264;2023-07-29T04:47:34;9.02;;;5.82;;
77040;SDS011;65974;42.664;23.264;2023-07-29T04:49:59;9.70;;;6.28;;
77040;SDS011;65974;42.664;23.264;2023-07-29T04:52:25;11.10;;;6.38;;
77040;SDS011;65974;42.664;23.264;2023-07-29T04:54:51;12.35;;;6.38;;
77040;SDS011;65974;42.664;23.264;2023-07-29T04:57:16;9.45;;;5.65;;
77040;SDS011;65974;42.664;23.264;2023-07-29T04:59:41;12.25;;;6.40;;
77040;SDS011;65974;42.664;23.264;2023-07-29T05:02:07;12.98;;;6.40;;
77040;SDS011;65974;42.664;23.264;2023-07-29T05:04:32;11.50;;;6.45;;
77040;SDS011;65974;42.664;23.264;2023-07-29T05:06:58;11.05;;;6.35;;
77040;SDS011;65974;42.664;23.264;2023-07-29T05:09:23;10.15;;;6.47;;
77040;SDS011;65974;42.664;23.264;2023-07-29T05:11:49;11.20;;;6.47;;
77040;SDS011;65974;42.664;23.264;2023-07-29T05:14:14;17.67;;;7.20;;
77040;SDS011;65974;42.664;23.264;2023-07-29T05:16:42;10.65;;;6.32;;
77040;SDS011;65974;42.664;23.264;2023-07-29T05:19:07;11.63;;;6.63;;
77040;SDS011;65974;42.664;23.264;2023-07-29T05:21:33;10.50;;;7.90;;
77040;SDS011;65974;42.664;23.264;2023-07-29T05:23:58;12.68;;;6.97;;
77040;SDS011;65974;42.664;23.264;2023-07-29T05:26:24;15.27;;;7.53;;
77040;SDS011;65974;42.664;23.264;2023-07-29T05:28:49;12.88;;;8.43;;
77040;SDS011;65974;42.664;23.264;2023-07-29T05:31:15;15.82;;;6.60;;
77040;SDS011;65974;42.664;23.264;2023-07-29T05:33:40;10.48;;;6.97;;
77040;SDS011;65974;42.664;23.264;2023-07-29T05:36:06;12.20;;;6.97;;
77040;SDS011;65974;42.664;23.264;2023-07-29T05:38:31;17.23;;;7.38;;
77040;SDS011;65974;42.664;23.264;2023-07-29T05:40:56;10.50;;;6.65;;
77040;SDS011;65974;42.664;23.264;2023-07-29T05:43:23;14.23;;;7.40;;
77040;SDS011;65974;42.664;23.264;2023-07-29T05:45:49;14.60;;;6.95;;
77040;SDS011;65974;42.664;23.264;2023-07-29T05:48:15;11.70;;;6.30;;
77040;SDS011;65974;42.664;23.264;2023-07-29T05:50:41;9.55;;;6.85;;
77040;SDS011;65974;42.664;23.264;2023-07-29T05:53:06;14.52;;;7.00;;
77040;SDS011;65974;42.664;23.264;2023-07-29T05:55:32;18.50;;;7.05;;
77040;SDS011;65974;42.664;23.264;2023-07-29T05:57:58;11.60;;;6.93;;
77040;SDS011;65974;42.664;23.264;2023-07-29T06:00:24;13.15;;;7.88;;
77040;SDS011;65974;42.664;23.264;2023-07-29T06:02:49;11.20;;;7.70;;
77040;SDS011;65974;42.664;23.264;2023-07-29T06:05:15;9.07;;;6.20;;
77040;SDS011;65974;42.664;23.264;2023-07-29T06:07:40;8.85;;;6.57;;
77040;SDS011;65974;42.664;23.264;2023-07-29T06:10:09;11.52;;;7.03;;
77040;SDS011;65974;42.664;23.264;2023-07-29T06:12:37;11.82;;;6.72;;
77040;SDS011;65974;42.664;23.264;2023-07-29T06:15:02;10.90;;;6.90;;
77040;SDS011;65974;42.664;23.264;2023-07-29T06:17:29;11.45;;;6.65;;
77040;SDS011;65974;42.664;23.264;2023-07-29T06:19:54;12.48;;;6.97;;
77040;SDS011;65974;42.664;23.264;2023-07-29T06:22:20;13.18;;;6.88;;
77040;SDS011;65974;42.664;23.264;2023-07-29T06:24:45;15.32;;;7.13;;
77040;SDS011;65974;42.664;23.264;2023-07-29T06:27:11;11.50;;;7.20;;
77040;SDS011;65974;42.664;23.264;2023-07-29T06:29:36;11.20;;;6.25;;
77040;SDS011;65974;42.664;23.264;2023-07-29T06:32:02;10.77;;;6.55;;
77040;SDS011;65974;42.664;23.264;2023-07-29T06:34:28;12.93;;;6.57;;
77040;SDS011;65974;42.664;23.264;2023-07-29T06:36:53;14.30;;;6.00;;
77040;SDS011;65974;42.664;23.264;2023-07-29T06:39:19;10.85;;;6.57;;
77040;SDS011;65974;42.664;23.264;2023-07-29T06:41:44;11.05;;;6.25;;
77040;SDS011;65974;42.664;23.264;2023-07-29T06:44:09;11.70;;;6.88;;
77040;SDS011;65974;42.664;23.264;2023-07-29T06:46:35;9.65;;;6.13;;
77040;SDS011;65974;42.664;23.264;2023-07-29T06:49:00;11.57;;;6.43;;
77040;SDS011;65974;42.664;23.264;2023-07-29T06:51:26;11.07;;;7.25;;
77040;SDS011;65974;42.664;23.264;2023-07-29T06:53:51;10.77;;;6.53;;
77040;SDS011;65974;42.664;23.264;2023-07-29T06:56:17;9.57;;;6.43;;
77040;SDS011;65974;42.664;23.264;2023-07-29T06:58:42;10.27;;;6.40;;
77040;SDS011;65974;42.664;23.264;2023-07-29T07:01:08;10.70;;;6.22;;
77040;SDS011;65974;42.664;23.264;2023-07-29T07:03:33;10.00;;;6.97;;
77040;SDS011;65974;42.664;23.264;2023-07-29T07:05:59;12.55;;;5.97;;
77040;SDS011;65974;42.664;23.264;2023-07-29T07:08:24;17.00;;;7.00;;
77040;SDS011;65974;42.664;23.264;2023-07-29T07:10:50;13.32;;;7.97;;
77040;SDS011;65974;42.664;23.264;2023-07-29T07:13:15;8.65;;;5.55;;
77040;SDS011;65974;42.664;23.264;2023-07-29T07:15:41;12.00;;;6.50;;
77040;SDS011;65974;42.664;23.264;2023-07-29T07:18:06;10.02;;;6.72;;
77040;SDS011;65974;42.664;23.264;2023-07-29T07:20:50;8.48;;;5.50;;
77040;SDS011;65974;42.664;23.264;2023-07-29T07:23:17;8.23;;;4.82;;
77040;SDS011;65974;42.664;23.264;2023-07-29T07:25:43;8.52;;;5.50;;
77040;SDS011;65974;42.664;23.264;2023-07-29T07:28:09;10.65;;;5.85;;
77040;SDS011;65974;42.664;23.264;2023-07-29T07:30:35;12.70;;;6.50;;
77040;SDS011;65974;42.664;23.264;2023-07-29T07:33:00;10.13;;;6.60;;
77040;SDS011;65974;42.664;23.264;2023-07-29T07:35:27;14.25;;;6.15;;
77040;SDS011;65974;42.664;23.264;2023-07-29T07:37:52;8.85;;;5.60;;
77040;SDS011;65974;42.664;23.264;2023-07-29T07:40:18;10.32;;;5.72;;
77040;SDS011;65974;42.664;23.264;2023-07-29T07:42:43;8.95;;;5.10;;
77040;SDS011;65974;42.664;23.264;2023-07-29T07:45:09;8.57;;;5.75;;
77040;SDS011;65974;42.664;23.264;2023-07-29T07:47:34;9.13;;;5.88;;
77040;SDS011;65974;42.664;23.264;2023-07-29T07:49:59;9.93;;;5.60;;
77040;SDS011;65974;42.664;23.264;2023-07-29T07:52:25;8.85;;;5.97;;
77040;SDS011;65974;42.664;23.264;2023-07-29T07:54:53;9.45;;;5.82;;
77040;SDS011;65974;42.664;23.264;2023-07-29T07:57:22;9.13;;;5.78;;
77040;SDS011;65974;42.664;23.264;2023-07-29T07:59:49;10.45;;;5.43;;
77040;SDS011;65974;42.664;23.264;2023-07-29T08:02:17;9.77;;;5.68;;
77040;SDS011;65974;42.664;23.264;2023-07-29T08:04:43;11.50;;;5.03;;
77040;SDS011;65974;42.664;23.264;2023-07-29T08:07:08;8.18;;;4.35;;
77040;SDS011;65974;42.664;23.264;2023-07-29T08:09:34;9.45;;;5.43;;
77040;SDS011;65974;42.664;23.264;2023-07-29T08:11:59;9.05;;;4.85;;
77040;SDS011;65974;42.664;23.264;2023-07-29T08:14:25;9.65;;;4.93;;
77040;SDS011;65974;42.664;23.264;2023-07-29T08:16:51;8.80;;;4.60;;
77040;SDS011;65974;42.664;23.264;2023-07-29T08:19:17;6.22;;;4.88;;
77040;SDS011;65974;42.664;23.264;2023-07-29T08:21:42;9.77;;;5.45;;
77040;SDS011;65974;42.664;23.264;2023-07-29T08:24:08;10.55;;;5.43;;
77040;SDS011;65974;42.664;23.264;2023-07-29T08:26:33;8.73;;;4.93;;
77040;SDS011;65974;42.664;23.264;2023-07-29T08:28:59;8.23;;;4.00;;
77040;SDS011;65974;42.664;23.264;2023-07-29T08:31:25;9.25;;;4.20;;
77040;SDS011;65974;42.664;23.264;2023-07-29T08:33:51;7.60;;;4.60;;
77040;SDS011;65974;42.664;23.264;2023-07-29T08:36:16;9.68;;;4.65;;
77040;SDS011;65974;42.664;23.264;2023-07-29T08:38:41;7.63;;;4.38;;
77040;SDS011;65974;42.664;23.264;2023-07-29T08:41:16;6.50;;;3.95;;
77040;SDS011;65974;42.664;23.264;2023-07-29T08:44:07;7.95;;;5.20;;
77040;SDS011;65974;42.664;23.264;2023-07-29T08:46:42;6.50;;;4.38;;
77040;SDS011;65974;42.664;23.264;2023-07-29T08:49:07;10.52;;;4.25;;
77040;SDS011;65974;42.664;23.264;2023-07-29T08:51:34;6.60;;;4.78;;
77040;SDS011;65974;42.664;23.264;2023-07-29T08:54:00;8.85;;;4.70;;
77040;SDS011;65974;42.664;23.264;2023-07-29T08:56:26;8.00;;;4.32;;
77040;SDS011;65974;42.664;23.264;2023-07-29T08:58:53;7.50;;;3.88;;
77040;SDS011;65974;42.664;23.264;2023-07-29T09:01:19;7.80;;;4.28;;
77040;SDS011;65974;42.664;23.264;2023-07-29T09:03:44;7.38;;;4.05;;
77040;SDS011;65974;42.664;23.264;2023-07-29T09:06:10;5.90;;;2.85;;
77040;SDS011;65974;42.664;23.264;2023-07-29T09:08:37;10.75;;;5.78;;
77040;SDS011;65974;42.664;23.264;2023-07-29T09:11:02;6.72;;;4.25;;
77040;SDS011;65974;42.664;23.264;2023-07-29T09:13:28;7.68;;;4.57;;
77040;SDS011;65974;42.664;23.264;2023-07-29T09:15:54;9.70;;;5.20;;
77040;SDS011;65974;42.664;23.264;2023-07-29T09:18:21;9.75;;;4.68;;
77040;SDS011;65974;42.664;23.264;2023-07-29T09:20:48;7.65;;;4.38;;
77040;SDS011;65974;42.664;23.264;2023-07-29T09:23:15;6.55;;;3.53;;
77040;SDS011;65974;42.664;23.264;2023-07-29T09:25:40;7.88;;;3.10;;
77040;SDS011;65974;42.664;23.264;2023-07-29T09:28:10;8.45;;;3.10;;
77040;SDS011;65974;42.664;23.264;2023-07-29T09:30:41;8.68;;;3.60;;
77040;SDS011;65974;42.664;23.264;2023-07-29T09:33:08;10.88;;;3.75;;
77040;SDS011;65974;42.664;23.264;2023-07-29T09:35:34;8.45;;;3.00;;
77040;SDS011;65974;42.664;23.264;2023-07-29T09:38:01;5.07;;;3.15;;
77040;SDS011;65974;42.664;23.264;2023-07-29T09:40:27;5.95;;;3.33;;
77040;SDS011;65974;42.664;23.264;2023-07-29T09:42:58;5.82;;;3.38;;
77040;SDS011;65974;42.664;23.264;2023-07-29T09:45:24;5.40;;;3.33;;
77040;SDS011;65974;42.664;23.264;2023-07-29T09:47:54;6.13;;;3.33;;
77040;SDS011;65974;42.664;23.264;2023-07-29T09:50:24;5.20;;;3.17;;
77040;SDS011;65974;42.664;23.264;2023-07-29T09:52:51;6.05;;;3.42;;
77040;SDS011;65974;42.664;23.264;2023-07-29T09:55:18;4.30;;;2.90;;
77040;SDS011;65974;42.664;23.264;2023-07-29T09:57:44;3.85;;;2.67;;
77040;SDS011;65974;42.664;23.264;2023-07-29T10:00:10;8.45;;;3.63;;
77040;SDS011;65974;42.664;23.264;2023-07-29T10:02:40;8.27;;;4.75;;
77040;SDS011;65974;42.664;23.264;2023-07-29T10:05:07;5.03;;;3.08;;
77040;SDS011;65974;42.664;23.264;2023-07-29T10:07:36;6.43;;;2.80;;
77040;SDS011;65974;42.664;23.264;2023-07-29T10:10:03;9.93;;;3.42;;
77040;SDS011;65974;42.664;23.264;2023-07-29T10:12:33;3.95;;;2.78;;
77040;SDS011;65974;42.664;23.264;2023-07-29T10:15:03;4.68;;;2.67;;
77040;SDS011;65974;42.664;23.264;2023-07-29T10:17:31;7.70;;;2.22;;
77040;SDS011;65974;42.664;23.264;2023-07-29T10:19:59;5.65;;;2.47;;
77040;SDS011;65974;42.664;23.264;2023-07-29T10:22:37;5.22;;;2.85;;
77040;SDS011;65974;42.664;23.264;2023-07-29T10:25:05;6.15;;;2.72;;
77040;SDS011;65974;42.664;23.264;2023-07-29T10:27:43;3.83;;;2.50;;
77040;SDS011;65974;42.664;23.264;2023-07-29T10:30:12;3.47;;;1.92;;
77040;SDS011;65974;42.664;23.264;2023-07-29T10:32:38;5.82;;;2.30;;
77040;SDS011;65974;42.664;23.264;2023-07-29T10:35:08;4.30;;;2.42;;
77040;SDS011;65974;42.664;23.264;2023-07-29T10:37:34;4.10;;;2.40;;
77040;SDS011;65974;42.664;23.264;2023-07-29T10:40:00;4.50;;;1.80;;
77040;SDS011;65974;42.664;23.264;2023-07-29T10:42:32;5.05;;;2.13;;
77040;SDS011;65974;42.664;23.264;2023-07-29T10:44:57;4.05;;;1.83;;
77040;SDS011;65974;42.664;23.264;2023-07-29T10:55:24;4.40;;;2.90;;
77040;SDS011;65974;42.664;23.264;2023-07-29T10:57:50;3.30;;;2.45;;
77040;SDS011;65974;42.664;23.264;2023-07-29T11:00:15;5.18;;;2.03;;
77040;SDS011;65974;42.664;23.264;2023-07-29T11:02:41;3.63;;;1.52;;
77040;SDS011;65974;42.664;23.264;2023-07-29T11:05:07;3.40;;;1.70;;
77040;SDS011;65974;42.664;23.264;2023-07-29T11:07:44;5.15;;;2.10;;
77040;SDS011;65974;42.664;23.264;2023-07-29T11:10:11;2.97;;;1.88;;
77040;SDS011;65974;42.664;23.264;2023-07-29T11:12:45;4.65;;;1.85;;
77040;SDS011;65974;42.664;23.264;2023-07-29T11:15:13;5.95;;;1.80;;
77040;SDS011;65974;42.664;23.264;2023-07-29T11:17:44;3.60;;;1.52;;
77040;SDS011;65974;42.664;23.264;2023-07-29T11:20:21;3.50;;;1.80;;
77040;SDS011;65974;42.664;23.264;2023-07-29T11:25:14;4.50;;;1.95;;
77040;SDS011;65974;42.664;23.264;2023-07-29T11:27:41;3.20;;;1.60;;
77040;SDS011;65974;42.664;23.264;2023-07-29T11:30:07;4.55;;;2.75;;
77040;SDS011;65974;42.664;23.264;2023-07-29T11:32:35;5.93;;;1.92;;
77040;SDS011;65974;42.664;23.264;2023-07-29T11:37:38;3.33;;;1.58;;
77040;SDS011;65974;42.664;23.264;2023-07-29T11:40:04;4.25;;;1.67;;
77040;SDS011;65974;42.664;23.264;2023-07-29T11:44:57;3.45;;;1.50;;
77040;SDS011;65974;42.664;23.264;2023-07-29T11:47:23;2.90;;;1.63;;
77040;SDS011;65974;42.664;23.264;2023-07-29T11:49:49;7.85;;;1.80;;
77040;SDS011;65974;42.664;23.264;2023-07-29T11:52:14;4.22;;;1.80;;
77040;SDS011;65974;42.664;23.264;2023-07-29T11:54:47;5.43;;;2.17;;
77040;SDS011;65974;42.664;23.264;2023-07-29T11:57:13;7.97;;;1.75;;
77040;SDS011;65974;42.664;23.264;2023-07-29T11:59:43;4.00;;;2.25;;
77040;SDS011;65974;42.664;23.264;2023-07-29T12:02:13;3.95;;;2.00;;
77040;SDS011;65974;42.664;23.264;2023-07-29T12:04:41;3.90;;;1.38;;
77040;SDS011;65974;42.664;23.264;2023-07-29T12:07:08;3.80;;;1.50;;
77040;SDS011;65974;42.664;23.264;2023-07-29T12:09:34;3.70;;;1.48;;
77040;SDS011;65974;42.664;23.264;2023-07-29T12:12:04;6.80;;;2.60;;
77040;SDS011;65974;42.664;23.264;2023-07-29T12:14:31;3.60;;;1.63;;
77040;SDS011;65974;42.664;23.264;2023-07-29T12:16:59;4.15;;;1.63;;
77040;SDS011;65974;42.664;23.264;2023-07-29T12:19:31;3.17;;;1.55;;
77040;SDS011;65974;42.664;23.264;2023-07-29T12:22:01;5.10;;;1.90;;
77040;SDS011;65974;42.664;23.264;2023-07-29T12:24:27;3.20;;;1.50;;
77040;SDS011;65974;42.664;23.264;2023-07-29T12:26:54;4.35;;;2.30;;
77040;SDS011;65974;42.664;23.264;2023-07-29T12:29:19;3.90;;;1.75;;
77040;SDS011;65974;42.664;23.264;2023-07-29T12:31:45;4.65;;;1.73;;
77040;SDS011;65974;42.664;23.264;2023-07-29T12:34:18;3.85;;;1.40;;
77040;SDS011;65974;42.664;23.264;2023-07-29T12:36:46;4.22;;;2.13;;
77040;SDS011;65974;42.664;23.264;2023-07-29T12:39:22;2.83;;;1.48;;
77040;SDS011;65974;42.664;23.264;2023-07-29T12:44:18;3.00;;;1.73;;
77040;SDS011;65974;42.664;23.264;2023-07-29T12:46:44;3.17;;;1.42;;
77040;SDS011;65974;42.664;23.264;2023-07-29T12:49:10;3.28;;;1.38;;
77040;SDS011;65974;42.664;23.264;2023-07-29T12:51:35;2.97;;;1.52;;
77040;SDS011;65974;42.664;23.264;2023-07-29T12:54:02;7.22;;;1.80;;
77040;SDS011;65974;42.664;23.264;2023-07-29T12:56:29;2.97;;;1.40;;
77040;SDS011;65974;42.664;23.264;2023-07-29T12:58:56;4.20;;;2.00;;
77040;SDS011;65974;42.664;23.264;2023-07-29T13:01:22;2.78;;;1.60;;
77040;SDS011;65974;42.664;23.264;2023-07-29T13:03:48;3.90;;;1.50;;
77040;SDS011;65974;42.664;23.264;2023-07-29T13:06:14;3.33;;;1.52;;
77040;SDS011;65974;42.664;23.264;2023-07-29T13:08:41;2.80;;;1.42;;
77040;SDS011;65974;42.664;23.264;2023-07-29T13:11:07;4.88;;;1.75;;
77040;SDS011;65974;42.664;23.264;2023-07-29T13:13:32;3.25;;;1.98;;
77040;SDS011;65974;42.664;23.264;2023-07-29T13:15:58;3.22;;;1.65;;
77040;SDS011;65974;42.664;23.264;2023-07-29T13:18:24;3.20;;;1.58;;
77040;SDS011;65974;42.664;23.264;2023-07-29T13:20:49;3.40;;;1.70;;
77040;SDS011;65974;42.664;23.264;2023-07-29T13:23:15;2.78;;;1.48;;
77040;SDS011;65974;42.664;23.264;2023-07-29T13:25:41;2.55;;;1.35;;
77040;SDS011;65974;42.664;23.264;2023-07-29T13:28:06;3.20;;;1.50;;
77040;SDS011;65974;42.664;23.264;2023-07-29T13:30:32;5.75;;;1.83;;
77040;SDS011;65974;42.664;23.264;2023-07-29T13:32:58;3.15;;;1.83;;
77040;SDS011;65974;42.664;23.264;2023-07-29T13:35:23;5.13;;;1.75;;
77040;SDS011;65974;42.664;23.264;2023-07-29T13:37:49;9.07;;;2.05;;
77040;SDS011;65974;42.664;23.264;2023-07-29T13:40:14;2.90;;;1.73;;
77040;SDS011;65974;42.664;23.264;2023-07-29T13:42:40;4.55;;;1.83;;
77040;SDS011;65974;42.664;23.264;2023-07-29T13:45:06;5.63;;;2.20;;
77040;SDS011;65974;42.664;23.264;2023-07-29T13:47:31;3.92;;;2.60;;
77040;SDS011;65974;42.664;23.264;2023-07-29T13:49:57;4.53;;;2.33;;
77040;SDS011;65974;42.664;23.264;2023-07-29T13:52:22;5.20;;;2.60;;
77040;SDS011;65974;42.664;23.264;2023-07-29T13:54:48;5.50;;;2.70;;
77040;SDS011;65974;42.664;23.264;2023-07-29T13:57:13;5.00;;;2.72;;
77040;SDS011;65974;42.664;23.264;2023-07-29T13:59:38;5.95;;;2.80;;
77040;SDS011;65974;42.664;23.264;2023-07-29T14:02:07;4.97;;;2.65;;
77040;SDS011;65974;42.664;23.264;2023-07-29T14:04:32;6.50;;;2.97;;
77040;SDS011;65974;42.664;23.264;2023-07-29T14:06:58;6.25;;;3.00;;
77040;SDS011;65974;42.664;23.264;2023-07-29T14:09:24;7.55;;;2.95;;
77040;SDS011;65974;42.664;23.264;2023-07-29T14:11:50;5.85;;;2.60;;
77040;SDS011;65974;42.664;23.264;2023-07-29T14:14:15;4.50;;;3.13;;
77040;SDS011;65974;42.664;23.264;2023-07-29T14:16:41;7.22;;;2.72;;
77040;SDS011;65974;42.664;23.264;2023-07-29T14:19:06;5.13;;;2.78;;
77040;SDS011;65974;42.664;23.264;2023-07-29T14:21:32;6.20;;;3.33;;
77040;SDS011;65974;42.664;23.264;2023-07-29T14:23:57;5.95;;;3.20;;
77040;SDS011;65974;42.664;23.264;2023-07-29T14:26:23;4.95;;;2.60;;
77040;SDS011;65974;42.664;23.264;2023-07-29T14:28:48;5.60;;;2.80;;
77040;SDS011;65974;42.664;23.264;2023-07-29T14:31:15;6.00;;;3.38;;
77040;SDS011;65974;42.664;23.264;2023-07-29T14:33:41;4.78;;;2.38;;
77040;SDS011;65974;42.664;23.264;2023-07-29T14:36:07;3.25;;;2.15;;
77040;SDS011;65974;42.664;23.264;2023-07-29T14:38:33;3.72;;;1.83;;
77040;SDS011;65974;42.664;23.264;2023-07-29T14:40:59;3.45;;;1.92;;
77040;SDS011;65974;42.664;23.264;2023-07-29T14:43:25;4.30;;;2.20;;
77040;SDS011;65974;42.664;23.264;2023-07-29T14:45:50;3.55;;;2.10;;
77040;SDS011;65974;42.664;23.264;2023-07-29T14:48:16;5.85;;;2.15;;
77040;SDS011;65974;42.664;23.264;2023-07-29T14:50:41;4.65;;;2.13;;
77040;SDS011;65974;42.664;23.264;2023-07-29T14:53:08;4.53;;;2.08;;
77040;SDS011;65974;42.664;23.264;2023-07-29T14:55:34;4.43;;;2.15;;
77040;SDS011;65974;42.664;23.264;2023-07-29T14:58:00;3.15;;;2.15;;
77040;SDS011;65974;42.664;23.264;2023-07-29T15:00:25;6.30;;;2.05;;